Search for airport 
image banner adimage banner adimage banner ad
image banner ad

FZAA - Kinshasa/N'djili

Located in Kinshasa, Congo, the Democratic Republic of the

ICAO - FZAA, IATA - FIH

Data provided by Airmate  

General information

Coordinates: S4°23'8" E15°26'41"
Elevation is 998 feet MSL.
 
View others Airports in Kinshasa

Operational data

Special qualification required
Current time UTC:
Current local time:
Weather
METAR: FZAA 191200Z 24006KT 7000 BKN020 28/21 Q1013 NOSIG
TAF: TAF FZAA 191100Z 1912/2018 24006KT 6000 BKN020 BECMG 1913/1915 SCT022 FEW030CB PROB30 1916/1919 TS BECMG 1923/2001 SCT018
View NOTAMs / SUP AIP / TFR affecting this airport [VIEW]
Communications frequencies: [VIEW]

Runways:

RWY identifierQFULength (ft)Width (ft)SurfaceLDA (ft)
0657°13123197CON
24237°13123197

Airport contact information

Address: Kinshasa Congo, the Democratic Republic of the

Satellite view of FZAA